Time;durP1;ratioP1;P1;durP2;ratioP2;P2;SDS_P1;SDS_P2;PMS_P1;PMS_P2;Temp;Humidity;BMP_temperature;BMP_pressure;BME280_temperature;BME280_humidity;BME280_pressure;Samples;Min_cycle;Max_cycle;Signal;HPM_P1;HPM_P2
2022/07/19 00:02:17;;;;;;;13.63;5.70;;;;;;;;;;4952648;28;97643;-73
2022/07/19 00:04:44;;;;;;;12.70;6.30;;;;;;;;;;4953317;28;95370;-73
2022/07/19 00:07:10;;;;;;;17.75;6.55;;;;;;;;;;4952359;28;96808;-73
2022/07/19 00:09:36;;;;;;;12.95;6.07;;;;;;;;;;4949954;28;97325;-73
2022/07/19 00:12:03;;;;;;;16.00;6.35;;;;;;;;;;4953397;28;95418;-73
2022/07/19 00:14:29;;;;;;;13.95;6.10;;;;;;;;;;4950457;28;96865;-73
2022/07/19 00:16:55;;;;;;;9.27;5.60;;;;;;;;;;4952590;28;96453;-73
2022/07/19 00:19:22;;;;;;;12.73;5.60;;;;;;;;;;4954328;28;95428;-73
2022/07/19 00:21:48;;;;;;;14.48;5.75;;;;;;;;;;4952169;28;97377;-74
2022/07/19 00:24:14;;;;;;;12.85;7.13;;;;;;;;;;4950933;28;96141;-74
2022/07/19 00:26:41;;;;;;;13.85;6.40;;;;;;;;;;4964608;28;96818;-74
2022/07/19 00:29:07;;;;;;;18.50;6.78;;;;;;;;;;4950897;28;97662;-73
2022/07/19 00:31:34;;;;;;;9.02;6.07;;;;;;;;;;4951390;28;95267;-74
2022/07/19 00:34:00;;;;;;;16.42;6.45;;;;;;;;;;4952007;28;95715;-73
2022/07/19 00:36:27;;;;;;;13.98;6.30;;;;;;;;;;4963805;28;96435;-74
2022/07/19 00:38:53;;;;;;;9.98;6.35;;;;;;;;;;4959302;28;95690;-73
2022/07/19 00:41:20;;;;;;;13.07;6.00;;;;;;;;;;4948527;28;97703;-73
2022/07/19 00:43:46;;;;;;;13.48;6.38;;;;;;;;;;4952577;28;95328;-73
2022/07/19 00:46:16;;;;;;;15.98;6.13;;;;;;;;;;4950706;28;96801;-73
2022/07/19 00:48:43;;;;;;;12.30;6.13;;;;;;;;;;4950727;28;97416;-73
2022/07/19 00:51:10;;;;;;;10.18;6.05;;;;;;;;;;4953659;28;95478;-73
2022/07/19 00:53:37;;;;;;;11.43;6.07;;;;;;;;;;4933554;28;97084;-73
2022/07/19 00:56:05;;;;;;;10.65;5.95;;;;;;;;;;4955512;28;97407;-73
2022/07/19 00:58:32;;;;;;;9.50;6.25;;;;;;;;;;4971644;28;95252;-73
2022/07/19 01:01:00;;;;;;;15.75;6.25;;;;;;;;;;4955373;28;96482;-73
2022/07/19 01:03:26;;;;;;;15.02;6.07;;;;;;;;;;4951660;28;95495;-73
2022/07/19 01:05:53;;;;;;;12.43;6.35;;;;;;;;;;4951669;28;96927;-73
2022/07/19 01:08:19;;;;;;;13.23;6.20;;;;;;;;;;4952752;28;97408;-73
2022/07/19 01:10:46;;;;;;;16.77;6.18;;;;;;;;;;4952228;28;96480;-73
2022/07/19 01:13:13;;;;;;;11.07;6.05;;;;;;;;;;4955245;28;96861;-73
2022/07/19 01:15:41;;;;;;;8.00;5.80;;;;;;;;;;4954646;28;97572;-73
2022/07/19 01:18:08;;;;;;;12.85;5.75;;;;;;;;;;4954917;28;95449;-73
2022/07/19 01:20:35;;;;;;;10.93;5.78;;;;;;;;;;4952780;28;97063;-73
2022/07/19 01:23:01;;;;;;;15.05;6.10;;;;;;;;;;4957533;28;96489;-73
2022/07/19 01:25:30;;;;;;;8.73;5.75;;;;;;;;;;4952863;28;96814;-73
2022/07/19 01:27:56;;;;;;;7.13;5.43;;;;;;;;;;4953762;28;97276;-73
2022/07/19 01:30:24;;;;;;;10.20;5.40;;;;;;;;;;4953052;28;95345;-73
2022/07/19 01:32:52;;;;;;;10.07;5.75;;;;;;;;;;4955106;28;96792;-73
2022/07/19 01:35:18;;;;;;;9.82;5.88;;;;;;;;;;4952925;28;97361;-73
2022/07/19 01:37:45;;;;;;;8.02;5.78;;;;;;;;;;4952630;28;95393;-73
2022/07/19 01:40:12;;;;;;;8.40;5.85;;;;;;;;;;4952521;28;96825;-73
2022/07/19 01:42:39;;;;;;;11.48;5.95;;;;;;;;;;4956150;28;97348;-73
2022/07/19 01:45:06;;;;;;;11.45;5.88;;;;;;;;;;4957017;28;95566;-73
2022/07/19 01:47:32;;;;;;;16.67;6.60;;;;;;;;;;4953484;28;97437;-73
2022/07/19 01:49:59;;;;;;;8.50;5.85;;;;;;;;;;4953703;28;95174;-73
2022/07/19 01:52:25;;;;;;;10.38;6.18;;;;;;;;;;4951824;28;97136;-73
2022/07/19 01:54:51;;;;;;;8.60;6.07;;;;;;;;;;4954911;28;97328;-73
2022/07/19 01:57:18;;;;;;;9.52;5.85;;;;;;;;;;4967636;28;95245;-73
2022/07/19 01:59:44;;;;;;;8.68;6.40;;;;;;;;;;4954517;28;96901;-73
2022/07/19 02:02:11;;;;;;;9.60;6.53;;;;;;;;;;4952875;28;97387;-73
2022/07/19 02:04:37;;;;;;;11.48;6.97;;;;;;;;;;4954781;28;95426;-73
2022/07/19 02:07:03;;;;;;;12.95;6.60;;;;;;;;;;4964964;28;96879;-73
2022/07/19 02:09:30;;;;;;;15.50;6.57;;;;;;;;;;4954663;28;95205;-73
2022/07/19 02:11:56;;;;;;;11.65;6.82;;;;;;;;;;4953645;28;95845;-73
2022/07/19 02:14:23;;;;;;;10.07;6.78;;;;;;;;;;4953433;28;97339;-73
2022/07/19 02:16:49;;;;;;;12.95;6.82;;;;;;;;;;4961193;28;96694;-73
2022/07/19 02:19:15;;;;;;;11.88;6.55;;;;;;;;;;4953945;28;96931;-73
2022/07/19 02:21:42;;;;;;;9.25;6.32;;;;;;;;;;4950948;28;97356;-73
2022/07/19 02:24:08;;;;;;;13.38;6.38;;;;;;;;;;4954677;28;95383;-73
2022/07/19 02:26:35;;;;;;;10.50;6.60;;;;;;;;;;4959168;28;96765;-73
2022/07/19 02:29:04;;;;;;;10.07;6.80;;;;;;;;;;4957276;28;96156;-73
2022/07/19 02:31:30;;;;;;;8.77;6.40;;;;;;;;;;4953177;28;95833;-73
2022/07/19 02:33:57;;;;;;;8.48;6.10;;;;;;;;;;4950947;28;97395;-73
2022/07/19 02:36:24;;;;;;;10.02;6.20;;;;;;;;;;4951325;28;96607;-73
2022/07/19 02:38:50;;;;;;;17.10;6.57;;;;;;;;;;4954179;28;96680;-73
2022/07/19 02:41:17;;;;;;;9.88;6.30;;;;;;;;;;4952443;28;97412;-73
2022/07/19 02:43:43;;;;;;;10.10;6.45;;;;;;;;;;4954309;28;95363;-73
2022/07/19 02:46:09;;;;;;;10.43;6.57;;;;;;;;;;4959010;28;96835;-73
2022/07/19 02:48:36;;;;;;;17.42;6.78;;;;;;;;;;4952447;28;97220;-73
2022/07/19 02:51:02;;;;;;;12.30;6.65;;;;;;;;;;4953348;28;96948;-73
2022/07/19 02:53:29;;;;;;;13.40;6.60;;;;;;;;;;4953629;28;97317;-73
2022/07/19 02:55:55;;;;;;;11.90;6.80;;;;;;;;;;4952158;28;95252;-73
2022/07/19 02:58:21;;;;;;;13.82;6.40;;;;;;;;;;4952913;28;96796;-73
2022/07/19 03:00:48;;;;;;;14.55;6.30;;;;;;;;;;4953844;28;97352;-73
2022/07/19 03:05:59;;;;;;;9.77;6.45;;;;;;;;;;4953138;28;96401;-73
2022/07/19 03:08:25;;;;;;;11.55;6.85;;;;;;;;;;4951605;28;97304;-73
2022/07/19 03:10:51;;;;;;;10.30;6.45;;;;;;;;;;4955073;28;95331;-73
2022/07/19 03:13:18;;;;;;;8.73;6.45;;;;;;;;;;4951699;28;97393;-73
2022/07/19 03:15:44;;;;;;;10.68;6.70;;;;;;;;;;4953123;28;95422;-73
2022/07/19 03:18:10;;;;;;;11.93;6.50;;;;;;;;;;4953504;28;96860;-73
2022/07/19 03:20:37;;;;;;;9.68;6.75;;;;;;;;;;4953094;28;97245;-73
2022/07/19 03:23:03;;;;;;;13.13;7.82;;;;;;;;;;4949982;28;95968;-73
2022/07/19 03:25:29;;;;;;;18.15;7.07;;;;;;;;;;4949759;28;96844;-73
2022/07/19 03:27:56;;;;;;;15.38;6.65;;;;;;;;;;4953329;28;97468;-73
2022/07/19 03:30:22;;;;;;;13.50;7.13;;;;;;;;;;4952159;28;95556;-73
2022/07/19 03:32:49;;;;;;;10.63;6.50;;;;;;;;;;4955295;28;96847;-73
2022/07/19 03:35:15;;;;;;;21.00;6.63;;;;;;;;;;4968046;28;95021;-73
2022/07/19 03:37:41;;;;;;;10.15;6.65;;;;;;;;;;4949684;28;96078;-73
2022/07/19 03:40:08;;;;;;;11.35;6.07;;;;;;;;;;4953139;28;97312;-73
2022/07/19 03:42:34;;;;;;;12.75;6.30;;;;;;;;;;4952193;28;95333;-73
2022/07/19 03:45:01;;;;;;;11.05;7.03;;;;;;;;;;4951972;28;96591;-73
2022/07/19 03:47:27;;;;;;;9.68;6.57;;;;;;;;;;4954344;28;97348;-73
2022/07/19 03:49:54;;;;;;;18.45;6.78;;;;;;;;;;4953092;28;95184;-73
2022/07/19 03:52:20;;;;;;;9.65;6.15;;;;;;;;;;4949776;28;96591;-73
2022/07/19 03:54:46;;;;;;;12.50;6.57;;;;;;;;;;4956108;28;97339;-73
2022/07/19 03:57:13;;;;;;;9.60;5.80;;;;;;;;;;4953603;28;96841;-73
2022/07/19 03:59:39;;;;;;;10.15;6.15;;;;;;;;;;4965955;28;97458;-73
2022/07/19 04:02:06;;;;;;;9.68;5.55;;;;;;;;;;4951865;28;95262;-73
2022/07/19 04:04:32;;;;;;;11.35;6.40;;;;;;;;;;4949595;28;96804;-73
2022/07/19 04:06:59;;;;;;;9.25;6.03;;;;;;;;;;4951561;28;97599;-74
2022/07/19 04:09:25;;;;;;;8.93;6.13;;;;;;;;;;4968436;28;95355;-73
2022/07/19 04:11:51;;;;;;;11.05;6.45;;;;;;;;;;4953337;28;97144;-73
2022/07/19 04:14:18;;;;;;;12.52;6.13;;;;;;;;;;4951354;28;97492;-73
2022/07/19 04:16:44;;;;;;;13.88;6.45;;;;;;;;;;4955519;28;95642;-73
2022/07/19 04:19:10;;;;;;;15.07;6.50;;;;;;;;;;4959410;28;97383;-73
2022/07/19 04:21:37;;;;;;;10.27;6.20;;;;;;;;;;4951143;28;95369;-73
2022/07/19 04:24:03;;;;;;;9.18;6.07;;;;;;;;;;4951856;28;97108;-73
2022/07/19 04:26:36;;;;;;;17.58;6.32;;;;;;;;;;4950967;28;97104;-73
2022/07/19 04:29:02;;;;;;;11.38;6.82;;;;;;;;;;4949628;28;95258;-73
2022/07/19 04:31:29;;;;;;;12.35;6.47;;;;;;;;;;4950454;28;97389;-73
2022/07/19 04:33:55;;;;;;;11.57;6.80;;;;;;;;;;4952203;28;97277;-73
2022/07/19 04:36:21;;;;;;;10.68;6.50;;;;;;;;;;4952374;28;95301;-73
2022/07/19 04:38:48;;;;;;;10.05;6.30;;;;;;;;;;4965809;28;95718;-73
2022/07/19 04:41:14;;;;;;;12.60;6.82;;;;;;;;;;4951619;28;95642;-73
2022/07/19 04:43:40;;;;;;;12.05;6.95;;;;;;;;;;4954706;28;96768;-73
2022/07/19 20:35:15;;;;;;;15.88;4.82;;;;;;;;;;5044481;27;96009;-75
2022/07/19 20:37:41;;;;;;;14.35;4.68;;;;;;;;;;5028232;28;97488;-75
2022/07/19 20:40:08;;;;;;;16.27;4.70;;;;;;;;;;5037435;27;95962;-75
2022/07/19 20:42:34;;;;;;;14.43;4.53;;;;;;;;;;5046877;27;95701;-75
2022/07/19 20:45:01;;;;;;;12.23;3.97;;;;;;;;;;5039671;27;97322;-75
2022/07/19 20:47:27;;;;;;;18.40;4.18;;;;;;;;;;5031678;27;95319;-76
2022/07/19 20:49:53;;;;;;;9.98;4.07;;;;;;;;;;5028116;28;96756;-75
2022/07/19 20:52:20;;;;;;;15.88;4.57;;;;;;;;;;5027816;28;97711;-76
2022/07/19 20:54:46;;;;;;;21.35;4.82;;;;;;;;;;5037202;27;95382;-75
2022/07/19 20:57:12;;;;;;;19.63;5.13;;;;;;;;;;5041612;27;97199;-76
2022/07/19 20:59:39;;;;;;;10.82;5.15;;;;;;;;;;5029182;28;95267;-75
2022/07/19 21:02:06;;;;;;;15.93;4.82;;;;;;;;;;5031678;27;95836;-76
2022/07/19 21:04:32;;;;;;;12.98;4.40;;;;;;;;;;5028911;27;97334;-77
2022/07/19 21:06:59;;;;;;;19.33;5.05;;;;;;;;;;5028770;28;95372;-75
2022/07/19 21:09:25;;;;;;;18.63;4.47;;;;;;;;;;5032707;27;96861;-76
2022/07/19 21:11:51;;;;;;;14.43;4.85;;;;;;;;;;5048553;27;96985;-76
2022/07/19 21:14:18;;;;;;;18.23;4.60;;;;;;;;;;5049215;27;95432;-75
2022/07/19 21:16:44;;;;;;;15.88;5.10;;;;;;;;;;5051968;27;97259;-75
2022/07/19 21:19:11;;;;;;;17.40;4.80;;;;;;;;;;5049220;27;95239;-76
2022/07/19 21:21:37;;;;;;;16.20;4.90;;;;;;;;;;5038304;27;96845;-76
2022/07/19 21:24:03;;;;;;;14.90;4.90;;;;;;;;;;5049118;27;97265;-76
2022/07/19 21:26:30;;;;;;;15.63;5.28;;;;;;;;;;5048021;27;95610;-74
2022/07/19 21:28:57;;;;;;;16.85;4.90;;;;;;;;;;5049150;27;96918;-76
2022/07/19 21:31:23;;;;;;;13.90;4.43;;;;;;;;;;5039830;27;97411;-75
2022/07/19 21:34:01;;;;;;;18.70;5.43;;;;;;;;;;5028162;28;95353;-75
2022/07/19 21:36:29;;;;;;;14.80;4.68;;;;;;;;;;5028865;27;96754;-75
2022/07/19 21:38:55;;;;;;;11.77;5.20;;;;;;;;;;5031833;28;97680;-75
2022/07/19 21:41:23;;;;;;;14.25;4.70;;;;;;;;;;5028113;28;96979;-75
2022/07/19 21:43:49;;;;;;;14.93;4.50;;;;;;;;;;5028331;27;98867;-75
2022/07/19 21:46:16;;;;;;;15.50;4.75;;;;;;;;;;5016729;28;95315;-75
2022/07/19 21:48:42;;;;;;;11.27;4.38;;;;;;;;;;5014585;28;96836;-75
2022/07/19 21:51:09;;;;;;;19.40;4.30;;;;;;;;;;5013958;27;97719;-75
2022/07/19 21:53:35;;;;;;;8.27;4.60;;;;;;;;;;5015414;28;96926;-75
2022/07/19 21:56:02;;;;;;;14.68;4.47;;;;;;;;;;5014611;28;95850;-75
2022/07/19 21:58:28;;;;;;;7.22;3.72;;;;;;;;;;5020172;28;97762;-75
2022/07/19 22:00:54;;;;;;;8.70;3.92;;;;;;;;;;5036832;27;95262;-75
2022/07/19 22:03:21;;;;;;;12.43;4.53;;;;;;;;;;5014076;28;97711;-75
2022/07/19 22:05:47;;;;;;;7.22;4.22;;;;;;;;;;5014660;27;96925;-74
2022/07/19 22:08:13;;;;;;;12.73;3.97;;;;;;;;;;5014299;28;96745;-75
2022/07/19 22:10:40;;;;;;;7.90;4.18;;;;;;;;;;5015791;27;98381;-75
2022/07/19 22:13:06;;;;;;;9.55;4.00;;;;;;;;;;5017193;27;95765;-74
2022/07/19 22:15:32;;;;;;;14.80;4.80;;;;;;;;;;5014272;28;96770;-75
2022/07/19 22:18:00;;;;;;;9.40;4.22;;;;;;;;;;5014816;27;97717;-75
2022/07/19 22:20:27;;;;;;;10.95;4.55;;;;;;;;;;5024746;27;96013;-74
2022/07/19 22:22:53;;;;;;;13.70;4.63;;;;;;;;;;5020243;27;95748;-74
2022/07/19 22:25:19;;;;;;;9.75;4.47;;;;;;;;;;5019919;27;95282;-75
2022/07/19 22:27:46;;;;;;;11.18;4.70;;;;;;;;;;5025171;28;96646;-74
2022/07/19 22:30:12;;;;;;;8.75;4.65;;;;;;;;;;5033322;28;97927;-75
2022/07/19 22:32:38;;;;;;;10.68;4.40;;;;;;;;;;5034220;27;95171;-74
2022/07/19 22:35:05;;;;;;;10.68;4.60;;;;;;;;;;5033472;27;96817;-74
2022/07/19 22:37:31;;;;;;;11.00;4.53;;;;;;;;;;5030858;27;96594;-74
2022/07/19 22:39:58;;;;;;;14.93;4.50;;;;;;;;;;5021427;27;95349;-74
2022/07/19 22:42:24;;;;;;;14.40;4.50;;;;;;;;;;5033982;28;96713;-75
2022/07/19 22:44:50;;;;;;;12.88;4.20;;;;;;;;;;5037050;27;95365;-74
2022/07/19 22:47:17;;;;;;;9.88;4.25;;;;;;;;;;5034261;27;96758;-75
2022/07/19 22:49:43;;;;;;;8.55;4.03;;;;;;;;;;5024841;27;97201;-75
2022/07/19 22:52:09;;;;;;;8.75;4.75;;;;;;;;;;5022360;27;95585;-75
2022/07/19 22:54:36;;;;;;;7.53;4.60;;;;;;;;;;5014305;27;96808;-75
2022/07/19 22:57:02;;;;;;;8.90;4.05;;;;;;;;;;5027235;27;98082;-74
2022/07/19 22:59:28;;;;;;;8.32;4.20;;;;;;;;;;5017425;27;96807;-74
2022/07/19 23:01:55;;;;;;;10.15;3.92;;;;;;;;;;5012991;28;96676;-75
2022/07/19 23:04:21;;;;;;;11.00;4.30;;;;;;;;;;5014884;28;97389;-74
2022/07/19 23:06:48;;;;;;;8.57;4.28;;;;;;;;;;5019568;28;96831;-74
2022/07/19 23:09:14;;;;;;;8.90;4.20;;;;;;;;;;5019511;27;96456;-75
2022/07/19 23:11:40;;;;;;;8.70;4.43;;;;;;;;;;5021730;28;95401;-75
2022/07/19 23:14:07;;;;;;;9.25;3.78;;;;;;;;;;5034197;27;95806;-74
2022/07/19 23:16:33;;;;;;;11.98;4.03;;;;;;;;;;5025985;27;96549;-75
2022/07/19 23:18:59;;;;;;;10.55;4.47;;;;;;;;;;5013396;28;95242;-75
2022/07/19 23:21:26;;;;;;;11.15;3.97;;;;;;;;;;5013773;28;97023;-75
2022/07/19 23:23:52;;;;;;;7.10;3.58;;;;;;;;;;5015404;27;97414;-75
2022/07/19 23:26:18;;;;;;;12.05;4.03;;;;;;;;;;5028482;27;95436;-75
2022/07/19 23:28:45;;;;;;;11.80;4.30;;;;;;;;;;5033019;28;97610;-74
2022/07/19 23:31:11;;;;;;;10.02;4.32;;;;;;;;;;5033659;28;95354;-74
2022/07/19 23:33:38;;;;;;;14.90;4.32;;;;;;;;;;5023772;27;96798;-75
2022/07/19 23:36:05;;;;;;;10.57;4.30;;;;;;;;;;5018704;28;97602;-75
2022/07/19 23:38:31;;;;;;;7.40;3.78;;;;;;;;;;5025925;27;97517;-75
2022/07/19 23:40:57;;;;;;;6.40;4.03;;;;;;;;;;5020985;28;96596;-74
2022/07/19 23:43:24;;;;;;;9.85;4.18;;;;;;;;;;5030011;28;97554;-75
2022/07/19 23:45:50;;;;;;;12.32;4.35;;;;;;;;;;5025738;27;96230;-75
2022/07/19 23:48:17;;;;;;;15.68;4.03;;;;;;;;;;5015190;28;95729;-75
2022/07/19 23:50:43;;;;;;;20.20;3.80;;;;;;;;;;5013453;28;95204;-75
2022/07/19 23:53:09;;;;;;;13.75;4.63;;;;;;;;;;5016081;27;97214;-73
2022/07/19 23:55:36;;;;;;;8.98;4.20;;;;;;;;;;5019712;28;97363;-74
2022/07/19 23:58:03;;;;;;;7.75;3.83;;;;;;;;;;5033119;28;95356;-74
